createdAt,value
2023-05-11T00:01:25.187Z,16.92
2023-05-11T00:03:52.894Z,18.13
2023-05-11T00:06:20.406Z,18.60
2023-05-11T00:08:47.820Z,16.08
2023-05-11T00:11:15.458Z,20.45
2023-05-11T00:13:43.026Z,16.08
2023-05-11T00:16:10.597Z,20.73
2023-05-11T00:18:38.099Z,19.90
2023-05-11T00:21:05.703Z,19.60
2023-05-11T00:23:33.028Z,21.48
2023-05-11T00:26:00.433Z,19.95
2023-05-11T00:28:27.894Z,16.85
2023-05-11T00:30:58.863Z,19.95
2023-05-11T00:33:26.943Z,15.75
2023-05-11T00:35:54.404Z,17.13
2023-05-11T00:38:21.849Z,15.15
2023-05-11T00:40:49.974Z,21.73
2023-05-11T00:43:17.701Z,15.20
2023-05-11T00:45:48.128Z,14.45
2023-05-11T00:48:16.372Z,12.30
2023-05-11T00:50:45.041Z,15.10
2023-05-11T00:53:13.303Z,15.90
2023-05-11T00:55:40.911Z,15.13
2023-05-11T00:58:08.624Z,14.68
2023-05-11T01:00:37.049Z,12.02
2023-05-11T01:03:05.042Z,16.95
2023-05-11T01:05:45.076Z,17.42
2023-05-11T01:08:19.637Z,15.82
2023-05-11T01:10:56.594Z,16.08
2023-05-11T01:13:29.155Z,18.48
2023-05-11T01:15:58.348Z,15.02
2023-05-11T01:18:29.766Z,17.45
2023-05-11T01:21:03.960Z,15.32
2023-05-11T01:23:34.988Z,17.85
2023-05-11T01:26:11.753Z,17.80
2023-05-11T01:28:48.935Z,19.42
2023-05-11T01:31:16.684Z,16.55
2023-05-11T01:33:51.015Z,17.83
2023-05-11T01:36:20.549Z,16.45
2023-05-11T01:38:49.152Z,19.50
2023-05-11T01:41:19.075Z,21.33
2023-05-11T01:43:48.124Z,16.10
2023-05-11T01:46:16.778Z,15.07
2023-05-11T01:48:46.934Z,16.17
2023-05-11T01:51:15.605Z,15.63
2023-05-11T01:53:43.545Z,19.58
2023-05-11T01:56:11.975Z,15.60
2023-05-11T01:58:40.322Z,16.75
2023-05-11T02:01:08.049Z,14.43
2023-05-11T02:03:37.051Z,17.00
2023-05-11T02:06:08.066Z,18.00
2023-05-11T02:08:37.160Z,16.15
2023-05-11T02:11:05.265Z,18.52
2023-05-11T02:13:34.162Z,14.60
2023-05-11T02:16:02.766Z,18.48
2023-05-11T02:18:31.062Z,21.88
2023-05-11T02:21:00.239Z,19.00
2023-05-11T02:23:28.533Z,15.07
2023-05-11T02:26:02.437Z,17.58
2023-05-11T02:28:30.021Z,13.88
2023-05-11T02:31:01.186Z,15.15
2023-05-11T02:33:32.727Z,17.02
2023-05-11T02:36:00.742Z,15.40
2023-05-11T02:38:34.153Z,16.77
2023-05-11T02:41:05.962Z,18.63
2023-05-11T02:43:36.693Z,22.83
2023-05-11T02:46:08.141Z,17.70
2023-05-11T02:48:41.366Z,23.05
2023-05-11T02:51:11.270Z,20.38
2023-05-11T02:53:46.036Z,22.33
2023-05-11T02:56:14.075Z,28.25
2023-05-11T02:58:41.897Z,28.00
2023-05-11T03:01:18.392Z,28.33
2023-05-11T03:03:46.037Z,28.13
2023-05-11T03:06:14.149Z,29.75
2023-05-11T03:08:42.768Z,27.20
2023-05-11T03:11:11.256Z,26.35
2023-05-11T03:13:39.977Z,28.15
2023-05-11T03:16:08.744Z,25.60
2023-05-11T03:18:37.234Z,23.83
2023-05-11T03:21:05.998Z,25.00
2023-05-11T03:23:35.003Z,24.05
2023-05-11T03:26:02.403Z,21.80
2023-05-11T03:28:30.919Z,23.10
2023-05-11T03:31:02.317Z,20.77
2023-05-11T03:33:31.804Z,16.92
2023-05-11T03:36:00.991Z,20.83
2023-05-11T03:38:30.100Z,15.63
2023-05-11T03:40:58.839Z,20.02
2023-05-11T03:43:29.451Z,20.20
2023-05-11T03:45:57.914Z,15.73
2023-05-11T03:48:26.683Z,14.35
2023-05-11T03:50:54.608Z,16.45
2023-05-11T03:53:22.302Z,18.02
2023-05-11T03:55:50.751Z,17.88
2023-05-11T03:58:18.134Z,16.95
2023-05-11T04:00:45.696Z,18.45
2023-05-11T04:03:14.035Z,17.23
2023-05-11T04:05:41.802Z,18.90
2023-05-11T04:08:13.500Z,19.13
2023-05-11T04:10:40.940Z,20.10
2023-05-11T04:13:08.552Z,21.25
2023-05-11T04:15:37.734Z,23.10
2023-05-11T04:18:05.243Z,22.23
2023-05-11T04:20:32.923Z,26.73
2023-05-11T04:23:00.701Z,19.90
2023-05-11T04:25:28.804Z,23.20
2023-05-11T04:27:56.213Z,17.70
2023-05-11T04:30:24.278Z,16.70
2023-05-11T04:32:51.746Z,18.67
2023-05-11T04:35:19.200Z,20.15
2023-05-11T04:37:46.745Z,19.10
2023-05-11T04:40:14.857Z,16.58
2023-05-11T04:42:43.714Z,17.33
2023-05-11T04:45:16.181Z,15.77
2023-05-11T04:47:44.381Z,11.68
2023-05-11T04:50:12.381Z,16.88
2023-05-11T04:52:40.149Z,15.57
2023-05-11T04:55:07.859Z,13.35
2023-05-11T04:57:35.681Z,15.00
2023-05-11T05:00:04.566Z,14.63
2023-05-11T05:02:33.040Z,15.65
2023-05-11T05:05:01.178Z,15.98
2023-05-11T05:07:28.779Z,16.73
2023-05-11T05:09:56.851Z,14.30
2023-05-11T05:12:24.232Z,15.90
2023-05-11T05:14:51.792Z,18.17
2023-05-11T05:17:19.260Z,15.20
2023-05-11T05:19:46.711Z,16.73
2023-05-11T05:22:14.253Z,14.25
2023-05-11T05:24:41.908Z,17.00
2023-05-11T05:27:09.932Z,16.60
2023-05-11T05:29:37.337Z,16.23
2023-05-11T05:32:04.830Z,16.83
2023-05-11T05:34:32.502Z,14.77
2023-05-11T05:36:59.904Z,17.23
2023-05-11T05:39:28.002Z,17.40
2023-05-11T05:41:55.500Z,16.15
2023-05-11T05:44:24.266Z,18.63
2023-05-11T05:46:51.785Z,16.55
2023-05-11T05:49:19.117Z,17.85
2023-05-11T05:51:46.957Z,17.00
2023-05-11T05:54:14.519Z,15.38
2023-05-11T05:56:42.130Z,18.83
2023-05-11T05:59:10.994Z,20.27
2023-05-11T06:01:44.289Z,16.00
2023-05-11T06:04:15.809Z,18.00
2023-05-11T06:06:43.508Z,18.38
2023-05-11T06:09:11.485Z,22.20
2023-05-11T06:11:38.889Z,20.40
2023-05-11T06:14:06.445Z,15.65
2023-05-11T06:16:34.721Z,18.45
2023-05-11T06:19:02.262Z,18.63
2023-05-11T06:21:30.215Z,18.95
2023-05-11T06:23:57.755Z,20.73
2023-05-11T06:26:28.733Z,19.08
2023-05-11T06:28:57.066Z,20.92
2023-05-11T06:31:25.305Z,21.15
2023-05-11T06:33:53.443Z,19.75
2023-05-11T06:36:25.402Z,14.80
2023-05-11T06:38:52.939Z,23.55
2023-05-11T06:41:21.740Z,21.27
2023-05-11T06:43:49.322Z,27.10
2023-05-11T06:46:26.069Z,24.33
2023-05-11T06:48:54.351Z,25.70
2023-05-11T06:51:22.155Z,20.08
2023-05-11T06:53:49.722Z,21.95
2023-05-11T06:56:17.440Z,26.52
2023-05-11T06:58:44.797Z,26.80
2023-05-11T07:01:12.898Z,21.88
2023-05-11T07:03:40.511Z,23.65
2023-05-11T07:06:08.027Z,19.38
2023-05-11T07:08:35.496Z,24.00
2023-05-11T07:11:03.016Z,21.38
2023-05-11T07:13:30.433Z,16.63
2023-05-11T07:15:58.020Z,20.27
2023-05-11T07:18:25.710Z,15.85
2023-05-11T07:20:53.157Z,18.13
2023-05-11T07:23:20.608Z,17.15
2023-05-11T07:25:48.175Z,21.05
2023-05-11T07:28:15.894Z,15.48
2023-05-11T07:30:43.755Z,14.85
2023-05-11T07:33:11.307Z,18.70
2023-05-11T07:35:38.918Z,11.85
2023-05-11T07:38:08.232Z,19.05
2023-05-11T07:40:35.962Z,15.02
2023-05-11T07:43:03.552Z,19.83
2023-05-11T07:45:31.816Z,18.67
2023-05-11T07:47:59.315Z,18.48
2023-05-11T07:50:27.182Z,18.85
2023-05-11T07:52:54.774Z,20.55
2023-05-11T07:55:25.133Z,14.48
2023-05-11T07:57:53.250Z,14.18
2023-05-11T08:00:21.154Z,11.82
2023-05-11T08:02:48.973Z,14.00
2023-05-11T08:05:18.957Z,17.15
2023-05-11T08:07:47.509Z,14.23
2023-05-11T08:10:14.981Z,15.85
2023-05-11T08:12:42.922Z,17.73
2023-05-11T08:15:10.598Z,16.98
2023-05-11T08:17:38.258Z,10.60
2023-05-11T08:20:06.970Z,14.35
2023-05-11T08:22:35.239Z,10.93
2023-05-11T08:25:03.886Z,12.10
2023-05-11T08:27:31.309Z,14.55
2023-05-11T08:30:01.459Z,14.43
2023-05-11T08:32:36.229Z,14.65
2023-05-11T08:35:11.412Z,16.08
2023-05-11T08:37:40.112Z,9.00
2023-05-11T08:40:12.496Z,11.60
2023-05-11T08:42:42.149Z,14.38
2023-05-11T08:45:11.293Z,8.75
2023-05-11T08:47:39.180Z,12.30
2023-05-11T08:50:06.962Z,14.55
2023-05-11T08:52:34.698Z,10.73
2023-05-11T08:55:02.270Z,12.52
2023-05-11T08:57:32.504Z,11.98
2023-05-11T09:00:00.793Z,10.63
2023-05-11T09:02:28.993Z,10.45
2023-05-11T09:04:56.948Z,10.73
2023-05-11T09:07:25.363Z,7.70
2023-05-11T09:09:53.066Z,12.75
2023-05-11T09:12:20.674Z,10.52
2023-05-11T09:14:48.122Z,8.27
2023-05-11T09:17:15.920Z,7.65
2023-05-11T09:20:00.192Z,7.57
2023-05-11T09:22:30.578Z,9.35
2023-05-11T09:25:00.701Z,8.82
2023-05-11T09:27:28.253Z,8.52
2023-05-11T09:29:55.895Z,6.45
2023-05-11T09:32:23.549Z,7.15
2023-05-11T09:34:51.908Z,8.95
2023-05-11T09:37:21.899Z,9.75
2023-05-11T09:40:25.064Z,6.75
2023-05-11T09:42:44.539Z,7.40
2023-05-11T09:45:12.057Z,5.72
2023-05-11T09:47:41.077Z,6.32
2023-05-11T09:50:18.632Z,7.82
2023-05-11T09:52:53.501Z,8.93
2023-05-11T09:55:21.060Z,8.30
2023-05-11T09:57:54.991Z,7.40
2023-05-11T10:00:22.512Z,7.90
2023-05-11T10:03:07.546Z,6.78
2023-05-11T10:05:35.948Z,7.32
2023-05-11T10:08:04.293Z,10.45
2023-05-11T10:10:32.852Z,5.82
2023-05-11T10:13:01.320Z,9.73
2023-05-11T10:15:30.527Z,5.90
2023-05-11T10:17:59.859Z,3.63
2023-05-11T10:20:27.627Z,5.78
2023-05-11T10:22:56.354Z,5.15
2023-05-11T10:25:24.445Z,7.78
2023-05-11T10:27:52.361Z,5.30
2023-05-11T10:30:20.493Z,3.28
2023-05-11T10:32:48.404Z,4.40
2023-05-11T10:35:16.016Z,4.22
2023-05-11T10:37:43.508Z,4.65
2023-05-11T10:40:12.098Z,3.80
2023-05-11T10:42:51.937Z,5.60
2023-05-11T10:45:34.890Z,4.18
2023-05-11T10:48:02.939Z,5.45
2023-05-11T10:50:36.945Z,9.50
2023-05-11T10:53:04.893Z,4.28
2023-05-11T10:55:38.967Z,6.57
2023-05-11T10:58:09.544Z,10.45
2023-05-11T11:00:49.576Z,4.07
2023-05-11T11:03:17.264Z,4.88
2023-05-11T11:05:45.526Z,5.97
2023-05-11T11:08:13.219Z,3.75
2023-05-11T11:10:44.002Z,4.60
2023-05-11T11:13:12.208Z,6.00
2023-05-11T11:15:54.992Z,4.10
2023-05-11T11:18:25.213Z,3.53
2023-05-11T11:20:53.633Z,5.97
2023-05-11T11:23:39.879Z,5.20
2023-05-11T11:26:10.236Z,4.63
2023-05-11T11:29:00.861Z,3.65
2023-05-11T11:31:32.522Z,5.95
2023-05-11T11:34:20.073Z,5.47
2023-05-11T11:37:00.848Z,5.72
2023-05-11T11:39:50.386Z,4.53
2023-05-11T11:42:19.506Z,5.22
2023-05-11T11:44:47.281Z,4.43
2023-05-11T11:47:15.594Z,6.63
2023-05-11T11:49:44.588Z,4.95
2023-05-11T11:52:13.325Z,5.40
2023-05-11T11:54:40.969Z,3.83
2023-05-11T11:57:27.217Z,3.13
2023-05-11T11:59:55.289Z,3.67
2023-05-11T12:02:23.989Z,3.92
2023-05-11T12:04:57.160Z,3.53
2023-05-11T12:07:26.262Z,5.07
2023-05-11T12:09:54.039Z,5.00
2023-05-11T12:12:21.901Z,5.05
2023-05-11T12:14:49.540Z,5.82
2023-05-11T12:17:24.560Z,4.25
2023-05-11T12:19:52.256Z,5.00
2023-05-11T12:22:23.900Z,3.63
2023-05-11T12:24:51.326Z,4.00
2023-05-11T12:27:19.889Z,6.38
2023-05-11T12:29:51.563Z,4.57
2023-05-11T12:32:29.451Z,4.55
2023-05-11T12:35:07.185Z,3.67
2023-05-11T12:37:34.653Z,6.55
2023-05-11T12:40:02.156Z,3.03
2023-05-11T12:42:29.611Z,6.05
2023-05-11T12:44:57.407Z,3.33
2023-05-11T12:47:24.960Z,3.88
2023-05-11T12:49:52.633Z,4.65
2023-05-11T12:52:20.137Z,3.65
2023-05-11T12:54:51.831Z,4.70
2023-05-11T12:57:29.862Z,5.38
2023-05-11T13:00:08.065Z,3.35
2023-05-11T13:02:35.810Z,4.60
2023-05-11T13:05:13.577Z,4.47
2023-05-11T13:07:41.392Z,5.60
2023-05-11T13:10:09.152Z,5.20
2023-05-11T13:12:37.183Z,3.33
2023-05-11T13:15:06.137Z,4.43
2023-05-11T13:17:34.671Z,6.93
2023-05-11T13:20:17.984Z,3.70
2023-05-11T13:22:45.650Z,5.88
2023-05-11T13:25:13.267Z,6.68
2023-05-11T13:27:41.074Z,3.88
2023-05-11T13:30:09.268Z,3.80
2023-05-11T13:32:39.866Z,4.10
2023-05-11T13:35:07.704Z,3.83
2023-05-11T13:37:35.513Z,6.10
2023-05-11T13:40:02.915Z,7.57
2023-05-11T13:42:30.531Z,2.58
2023-05-11T13:45:01.216Z,4.55
2023-05-11T13:47:28.792Z,4.32
2023-05-11T13:49:56.451Z,3.15
2023-05-11T13:52:23.862Z,4.57
2023-05-11T13:54:51.436Z,2.53
2023-05-11T13:57:19.118Z,4.30
2023-05-11T13:59:46.610Z,2.95
2023-05-11T14:02:14.144Z,4.80
2023-05-11T14:04:41.757Z,4.32
2023-05-11T14:07:09.209Z,4.32
2023-05-11T14:09:37.276Z,4.00
2023-05-11T14:12:04.884Z,3.92
2023-05-11T14:14:32.310Z,4.90
2023-05-11T14:16:59.955Z,4.20
2023-05-11T14:19:27.643Z,4.30
2023-05-11T14:21:55.401Z,5.45
2023-05-11T14:24:22.924Z,4.80
2023-05-11T14:26:50.588Z,3.22
2023-05-11T14:29:18.053Z,3.97
2023-05-11T14:31:46.482Z,3.65
2023-05-11T14:34:14.187Z,3.92
2023-05-11T14:36:41.644Z,3.15
2023-05-11T14:39:09.084Z,4.50
2023-05-11T14:41:36.900Z,4.85
2023-05-11T14:44:04.436Z,3.75
2023-05-11T14:46:31.943Z,3.45
2023-05-11T14:48:59.501Z,4.07
2023-05-11T14:51:26.952Z,5.30
2023-05-11T14:53:54.337Z,4.32
2023-05-11T14:56:23.466Z,4.50
2023-05-11T14:58:50.953Z,3.95
2023-05-11T15:01:18.532Z,3.50
2023-05-11T15:03:46.069Z,4.22
2023-05-11T15:06:21.319Z,4.80
2023-05-11T15:08:49.544Z,4.80
2023-05-11T15:11:17.585Z,3.85
2023-05-11T15:13:47.574Z,4.05
2023-05-11T15:16:15.213Z,3.83
2023-05-11T15:18:43.189Z,6.80
2023-05-11T15:21:11.745Z,4.68
2023-05-11T15:23:39.406Z,3.10
2023-05-11T15:26:06.944Z,3.80
2023-05-11T15:28:34.372Z,5.57
2023-05-11T15:31:01.895Z,5.82
2023-05-11T15:33:29.541Z,3.45
2023-05-11T15:35:56.920Z,6.53
2023-05-11T15:38:24.388Z,5.10
2023-05-11T15:40:51.929Z,6.28
2023-05-11T15:43:19.407Z,2.88
2023-05-11T15:45:46.839Z,4.63
2023-05-11T15:48:15.239Z,2.85
2023-05-11T15:50:42.686Z,7.15
2023-05-11T15:53:10.196Z,4.47
2023-05-11T15:55:39.314Z,8.43
2023-05-11T15:58:10.620Z,4.95
2023-05-11T16:00:38.587Z,3.65
2023-05-11T16:03:07.670Z,5.47
2023-05-11T16:05:36.272Z,3.15
2023-05-11T16:08:04.008Z,4.63
2023-05-11T16:10:31.439Z,4.72
2023-05-11T16:12:59.015Z,3.35
2023-05-11T16:15:26.675Z,5.95
2023-05-11T16:17:54.460Z,4.93
2023-05-11T16:20:21.830Z,5.68
2023-05-11T16:22:49.528Z,3.75
2023-05-11T16:25:17.487Z,3.53
2023-05-11T16:27:44.902Z,3.30
2023-05-11T16:30:23.207Z,5.15
2023-05-11T16:32:53.011Z,6.10
2023-05-11T16:35:20.954Z,4.45
2023-05-11T16:37:48.510Z,4.35
2023-05-11T16:40:21.261Z,4.25
2023-05-11T16:42:49.188Z,6.20
2023-05-11T16:45:16.788Z,5.85
2023-05-11T16:47:47.410Z,3.13
2023-05-11T16:50:16.135Z,6.22
2023-05-11T16:52:44.276Z,3.88
2023-05-11T16:55:11.729Z,4.03
2023-05-11T16:57:39.284Z,6.70
2023-05-11T17:00:07.140Z,5.22
2023-05-11T17:02:34.589Z,5.38
2023-05-11T17:05:02.116Z,6.53
2023-05-11T17:07:29.579Z,5.50
2023-05-11T17:09:57.447Z,3.95
2023-05-11T17:12:25.053Z,5.00
2023-05-11T17:14:52.593Z,4.75
2023-05-11T17:17:20.060Z,8.77
2023-05-11T17:19:47.690Z,5.78
2023-05-11T17:22:15.375Z,9.10
2023-05-11T17:24:42.944Z,8.52
2023-05-11T17:27:10.589Z,4.60
2023-05-11T17:29:38.194Z,7.13
2023-05-11T17:32:05.746Z,7.95
2023-05-11T17:34:33.425Z,6.15
2023-05-11T17:37:01.028Z,7.38
2023-05-11T17:39:28.474Z,5.95
2023-05-11T17:41:56.357Z,5.68
2023-05-11T17:44:23.934Z,8.75
2023-05-11T17:46:52.282Z,8.23
2023-05-11T17:49:19.914Z,5.13
2023-05-11T17:51:47.725Z,4.90
2023-05-11T17:54:15.413Z,5.68
2023-05-11T17:56:42.838Z,7.55
2023-05-11T17:59:10.291Z,5.65
2023-05-11T18:01:37.784Z,5.25
2023-05-11T18:04:05.893Z,10.13
2023-05-11T18:06:34.718Z,11.45
2023-05-11T18:09:05.032Z,4.57
2023-05-11T18:11:32.600Z,4.32
2023-05-11T18:13:59.960Z,5.93
2023-05-11T18:16:27.467Z,6.00
2023-05-11T18:18:55.404Z,6.82
2023-05-11T18:21:23.020Z,6.07
2023-05-11T18:23:50.437Z,11.68
2023-05-11T18:26:19.539Z,5.70
2023-05-11T18:28:47.162Z,5.10
2023-05-11T18:31:14.757Z,8.55
2023-05-11T18:33:42.259Z,8.45
2023-05-11T18:36:11.563Z,10.40
2023-05-11T18:38:39.064Z,9.50
2023-05-11T18:41:06.594Z,9.35
2023-05-11T18:43:34.527Z,8.57
2023-05-11T18:46:02.059Z,7.50
2023-05-11T18:48:29.783Z,8.15
2023-05-11T18:50:57.627Z,10.07
2023-05-11T18:53:25.283Z,10.00
2023-05-11T18:55:53.876Z,7.45
2023-05-11T18:58:21.646Z,9.27
2023-05-11T19:00:49.763Z,6.53
2023-05-11T19:03:18.640Z,12.85
2023-05-11T19:05:46.220Z,9.27
2023-05-11T19:08:13.890Z,8.27
2023-05-11T19:10:45.110Z,6.82
2023-05-11T19:13:15.750Z,12.00
2023-05-11T19:15:44.176Z,11.85
2023-05-11T19:18:11.813Z,7.32
2023-05-11T19:20:39.546Z,9.48
2023-05-11T19:23:07.176Z,8.23
2023-05-11T19:25:34.495Z,9.15
2023-05-11T19:28:01.962Z,9.10
2023-05-11T19:30:29.520Z,8.38
2023-05-11T19:32:57.000Z,10.77
2023-05-11T19:35:24.573Z,7.90
2023-05-11T19:37:52.268Z,9.80
2023-05-11T19:42:53.874Z,11.30
2023-05-11T19:45:21.596Z,10.52
2023-05-11T19:47:49.021Z,10.77
2023-05-11T19:50:18.929Z,13.60
2023-05-11T19:52:47.928Z,11.48
2023-05-11T19:55:15.612Z,14.45
2023-05-11T19:57:43.152Z,10.82
2023-05-11T20:00:12.023Z,12.00
2023-05-11T20:02:39.607Z,13.80
2023-05-11T20:05:07.533Z,8.65
2023-05-11T20:07:35.190Z,15.60
2023-05-11T20:10:03.004Z,12.27
2023-05-11T20:12:30.885Z,14.63
2023-05-11T20:14:58.500Z,11.68
2023-05-11T20:17:26.133Z,12.23
2023-05-11T20:19:53.592Z,16.42
2023-05-11T20:22:22.669Z,17.40
2023-05-11T20:24:50.223Z,12.60
2023-05-11T20:27:17.720Z,10.40
2023-05-11T20:29:45.111Z,11.70
2023-05-11T20:32:12.632Z,12.23
2023-05-11T20:34:40.096Z,10.98
2023-05-11T20:37:07.555Z,11.88
2023-05-11T20:39:35.010Z,15.75
2023-05-11T20:42:04.398Z,19.20
2023-05-11T20:44:31.907Z,14.63
2023-05-11T20:46:59.401Z,11.30
2023-05-11T20:49:38.031Z,11.98
2023-05-11T20:52:06.840Z,15.18
2023-05-11T20:54:35.900Z,11.07
2023-05-11T20:57:04.507Z,16.77
2023-05-11T21:02:02.938Z,13.68
2023-05-11T21:04:31.517Z,12.73
2023-05-11T21:06:59.321Z,11.23
2023-05-11T21:09:26.729Z,15.15
2023-05-11T21:11:54.160Z,17.63
2023-05-11T21:14:21.500Z,14.77
2023-05-11T21:16:48.973Z,14.63
2023-05-11T21:19:16.705Z,21.52
2023-05-11T21:21:44.526Z,21.30
2023-05-11T21:24:14.024Z,13.40
2023-05-11T21:26:41.653Z,13.70
2023-05-11T21:29:09.109Z,13.13
2023-05-11T21:31:36.458Z,16.42
2023-05-11T21:34:04.347Z,13.27
2023-05-11T21:36:31.744Z,19.67
2023-05-11T21:38:59.392Z,39.83
2023-05-11T21:41:27.009Z,14.60
2023-05-11T21:43:54.557Z,19.50
2023-05-11T21:46:22.045Z,12.38
2023-05-11T21:48:49.504Z,17.33
2023-05-11T21:51:16.989Z,15.30
2023-05-11T21:53:44.642Z,16.70
2023-05-11T21:56:12.776Z,14.38
2023-05-11T21:58:40.119Z,14.77
2023-05-11T22:01:08.299Z,15.70
2023-05-11T22:03:35.861Z,13.35
2023-05-11T22:06:03.446Z,16.80
2023-05-11T22:08:31.394Z,14.65
2023-05-11T22:10:59.338Z,15.95
2023-05-11T22:13:26.897Z,20.98
2023-05-11T22:15:54.584Z,18.02
2023-05-11T22:18:21.954Z,16.70
2023-05-11T22:20:49.376Z,16.90
2023-05-11T22:23:16.850Z,19.77
2023-05-11T22:25:44.543Z,16.23
2023-05-11T22:28:11.904Z,12.85
2023-05-11T22:30:39.342Z,20.33
2023-05-11T22:33:06.780Z,14.77
2023-05-11T22:35:34.277Z,14.60
2023-05-11T22:38:01.995Z,15.60
2023-05-11T22:40:29.454Z,17.02
2023-05-11T22:42:56.902Z,17.00
2023-05-11T22:45:24.458Z,17.55
2023-05-11T22:47:51.980Z,17.00
2023-05-11T22:50:19.627Z,22.00
2023-05-11T22:52:47.465Z,20.70
2023-05-11T22:55:14.852Z,17.23
2023-05-11T22:57:42.623Z,23.52
2023-05-11T23:00:10.925Z,21.35
2023-05-11T23:02:38.692Z,20.02
2023-05-11T23:05:06.487Z,18.08
2023-05-11T23:07:34.009Z,19.58
2023-05-11T23:10:01.612Z,18.25
2023-05-11T23:12:29.080Z,15.63
2023-05-11T23:14:56.442Z,14.93
2023-05-11T23:17:23.974Z,16.10
2023-05-11T23:19:51.990Z,23.80
2023-05-11T23:22:22.166Z,26.65
2023-05-11T23:24:49.637Z,24.83
2023-05-11T23:27:17.303Z,23.55
2023-05-11T23:29:44.987Z,25.95
2023-05-11T23:32:12.530Z,20.92
2023-05-11T23:34:40.500Z,22.33
2023-05-11T23:37:08.383Z,20.27
2023-05-11T23:39:35.866Z,14.75
2023-05-11T23:42:04.461Z,18.58
2023-05-11T23:44:32.120Z,14.35
2023-05-11T23:46:59.573Z,18.90
2023-05-11T23:49:27.079Z,19.42
2023-05-11T23:51:54.648Z,14.15
2023-05-11T23:54:22.222Z,15.80
2023-05-11T23:56:49.670Z,14.05
2023-05-11T23:59:17.190Z,13.55
